sensor_id;sensor_type;location;lat;lon;timestamp;P1;durP1;ratioP1;P2;durP2;ratioP2
57856;SDS011;43683;48.650;9.290;2023-04-25T00:01:38;4.43;;;2.90;;
57856;SDS011;43683;48.650;9.290;2023-04-25T00:04:04;3.83;;;2.63;;
57856;SDS011;43683;48.650;9.290;2023-04-25T00:06:33;4.55;;;2.80;;
57856;SDS011;43683;48.650;9.290;2023-04-25T00:09:01;4.85;;;2.78;;
57856;SDS011;43683;48.650;9.290;2023-04-25T00:11:27;4.67;;;2.87;;
57856;SDS011;43683;48.650;9.290;2023-04-25T00:13:53;4.75;;;3.05;;
57856;SDS011;43683;48.650;9.290;2023-04-25T00:16:19;4.63;;;2.88;;
57856;SDS011;43683;48.650;9.290;2023-04-25T00:18:44;5.28;;;3.03;;
57856;SDS011;43683;48.650;9.290;2023-04-25T00:21:16;5.18;;;3.35;;
57856;SDS011;43683;48.650;9.290;2023-04-25T00:23:43;5.10;;;3.10;;
57856;SDS011;43683;48.650;9.290;2023-04-25T00:26:08;5.60;;;3.63;;
57856;SDS011;43683;48.650;9.290;2023-04-25T00:28:34;4.57;;;3.05;;
57856;SDS011;43683;48.650;9.290;2023-04-25T00:30:59;6.13;;;3.17;;
57856;SDS011;43683;48.650;9.290;2023-04-25T00:33:25;5.30;;;3.40;;
57856;SDS011;43683;48.650;9.290;2023-04-25T00:35:50;4.55;;;3.10;;
57856;SDS011;43683;48.650;9.290;2023-04-25T00:38:16;6.15;;;3.28;;
57856;SDS011;43683;48.650;9.290;2023-04-25T00:40:41;4.75;;;3.17;;
57856;SDS011;43683;48.650;9.290;2023-04-25T00:43:08;5.83;;;3.37;;
57856;SDS011;43683;48.650;9.290;2023-04-25T00:45:34;8.48;;;3.45;;
57856;SDS011;43683;48.650;9.290;2023-04-25T00:48:04;7.60;;;3.60;;
57856;SDS011;43683;48.650;9.290;2023-04-25T00:50:30;4.97;;;3.25;;
57856;SDS011;43683;48.650;9.290;2023-04-25T00:52:57;6.65;;;3.85;;
57856;SDS011;43683;48.650;9.290;2023-04-25T00:55:23;5.47;;;3.47;;
57856;SDS011;43683;48.650;9.290;2023-04-25T00:57:49;6.55;;;3.60;;
57856;SDS011;43683;48.650;9.290;2023-04-25T01:00:15;7.95;;;3.28;;
57856;SDS011;43683;48.650;9.290;2023-04-25T01:02:41;6.78;;;3.67;;
57856;SDS011;43683;48.650;9.290;2023-04-25T01:05:07;5.47;;;3.47;;
57856;SDS011;43683;48.650;9.290;2023-04-25T01:07:34;5.50;;;3.25;;
57856;SDS011;43683;48.650;9.290;2023-04-25T01:09:59;5.82;;;3.67;;
57856;SDS011;43683;48.650;9.290;2023-04-25T01:12:26;4.65;;;3.25;;
57856;SDS011;43683;48.650;9.290;2023-04-25T01:14:51;4.78;;;3.60;;
57856;SDS011;43683;48.650;9.290;2023-04-25T01:17:19;7.20;;;3.80;;
57856;SDS011;43683;48.650;9.290;2023-04-25T01:19:45;5.85;;;3.47;;
57856;SDS011;43683;48.650;9.290;2023-04-25T01:22:13;4.60;;;2.95;;
57856;SDS011;43683;48.650;9.290;2023-04-25T01:24:39;4.85;;;3.30;;
57856;SDS011;43683;48.650;9.290;2023-04-25T01:27:04;5.22;;;3.20;;
57856;SDS011;43683;48.650;9.290;2023-04-25T01:29:31;6.22;;;3.55;;
57856;SDS011;43683;48.650;9.290;2023-04-25T01:31:57;5.95;;;3.10;;
57856;SDS011;43683;48.650;9.290;2023-04-25T01:34:23;6.30;;;3.33;;
57856;SDS011;43683;48.650;9.290;2023-04-25T01:36:50;5.60;;;3.35;;
57856;SDS011;43683;48.650;9.290;2023-04-25T01:39:16;6.60;;;3.80;;
57856;SDS011;43683;48.650;9.290;2023-04-25T01:41:42;5.90;;;3.85;;
57856;SDS011;43683;48.650;9.290;2023-04-25T01:44:08;5.88;;;3.05;;
57856;SDS011;43683;48.650;9.290;2023-04-25T01:46:34;4.75;;;3.35;;
57856;SDS011;43683;48.650;9.290;2023-04-25T01:49:00;5.07;;;3.15;;
57856;SDS011;43683;48.650;9.290;2023-04-25T01:51:26;5.18;;;3.60;;
57856;SDS011;43683;48.650;9.290;2023-04-25T01:53:51;4.57;;;3.22;;
57856;SDS011;43683;48.650;9.290;2023-04-25T01:56:17;6.20;;;3.22;;
57856;SDS011;43683;48.650;9.290;2023-04-25T01:58:43;5.53;;;3.08;;
57856;SDS011;43683;48.650;9.290;2023-04-25T02:01:09;4.28;;;2.80;;
57856;SDS011;43683;48.650;9.290;2023-04-25T02:03:35;4.85;;;2.97;;
57856;SDS011;43683;48.650;9.290;2023-04-25T02:06:01;6.57;;;3.10;;
57856;SDS011;43683;48.650;9.290;2023-04-25T02:08:26;5.03;;;3.10;;
57856;SDS011;43683;48.650;9.290;2023-04-25T02:10:52;5.47;;;3.17;;
57856;SDS011;43683;48.650;9.290;2023-04-25T02:13:17;4.50;;;3.15;;
57856;SDS011;43683;48.650;9.290;2023-04-25T02:15:43;5.78;;;3.10;;
57856;SDS011;43683;48.650;9.290;2023-04-25T02:18:08;5.95;;;3.45;;
57856;SDS011;43683;48.650;9.290;2023-04-25T02:20:35;5.88;;;3.08;;
57856;SDS011;43683;48.650;9.290;2023-04-25T02:23:01;7.18;;;3.30;;
57856;SDS011;43683;48.650;9.290;2023-04-25T02:25:27;5.38;;;3.33;;
57856;SDS011;43683;48.650;9.290;2023-04-25T02:27:52;6.82;;;3.33;;
57856;SDS011;43683;48.650;9.290;2023-04-25T02:30:18;6.03;;;3.13;;
57856;SDS011;43683;48.650;9.290;2023-04-25T02:32:44;5.10;;;3.05;;
57856;SDS011;43683;48.650;9.290;2023-04-25T02:35:09;4.07;;;2.60;;
57856;SDS011;43683;48.650;9.290;2023-04-25T02:37:36;3.75;;;2.72;;
57856;SDS011;43683;48.650;9.290;2023-04-25T02:40:02;5.03;;;3.10;;
57856;SDS011;43683;48.650;9.290;2023-04-25T02:42:29;4.93;;;2.58;;
57856;SDS011;43683;48.650;9.290;2023-04-25T02:44:54;3.25;;;2.55;;
57856;SDS011;43683;48.650;9.290;2023-04-25T02:47:20;4.38;;;2.70;;
57856;SDS011;43683;48.650;9.290;2023-04-25T02:49:45;3.55;;;2.58;;
57856;SDS011;43683;48.650;9.290;2023-04-25T02:52:11;4.72;;;2.83;;
57856;SDS011;43683;48.650;9.290;2023-04-25T02:54:37;5.13;;;2.53;;
57856;SDS011;43683;48.650;9.290;2023-04-25T02:57:03;5.03;;;2.38;;
57856;SDS011;43683;48.650;9.290;2023-04-25T02:59:29;4.78;;;3.00;;
57856;SDS011;43683;48.650;9.290;2023-04-25T03:01:54;4.75;;;2.67;;
57856;SDS011;43683;48.650;9.290;2023-04-25T03:04:20;5.00;;;2.80;;
57856;SDS011;43683;48.650;9.290;2023-04-25T03:06:48;5.60;;;3.03;;
57856;SDS011;43683;48.650;9.290;2023-04-25T03:09:15;5.65;;;3.10;;
57856;SDS011;43683;48.650;9.290;2023-04-25T03:11:41;4.95;;;2.65;;
57856;SDS011;43683;48.650;9.290;2023-04-25T03:14:06;5.60;;;3.03;;
57856;SDS011;43683;48.650;9.290;2023-04-25T03:16:32;5.47;;;2.80;;
57856;SDS011;43683;48.650;9.290;2023-04-25T03:18:57;4.97;;;2.88;;
57856;SDS011;43683;48.650;9.290;2023-04-25T03:21:23;4.80;;;2.88;;
57856;SDS011;43683;48.650;9.290;2023-04-25T03:23:48;6.70;;;3.20;;
57856;SDS011;43683;48.650;9.290;2023-04-25T03:26:14;4.10;;;2.85;;
57856;SDS011;43683;48.650;9.290;2023-04-25T03:28:40;6.43;;;3.17;;
57856;SDS011;43683;48.650;9.290;2023-04-25T03:31:06;6.05;;;3.08;;
57856;SDS011;43683;48.650;9.290;2023-04-25T03:33:31;4.70;;;3.05;;
57856;SDS011;43683;48.650;9.290;2023-04-25T03:35:57;4.00;;;3.00;;
57856;SDS011;43683;48.650;9.290;2023-04-25T03:38:22;6.20;;;2.92;;
57856;SDS011;43683;48.650;9.290;2023-04-25T03:40:48;5.80;;;3.00;;
57856;SDS011;43683;48.650;9.290;2023-04-25T03:43:15;5.25;;;3.15;;
57856;SDS011;43683;48.650;9.290;2023-04-25T03:45:41;5.35;;;3.20;;
57856;SDS011;43683;48.650;9.290;2023-04-25T03:48:06;5.20;;;3.60;;
57856;SDS011;43683;48.650;9.290;2023-04-25T03:50:32;6.43;;;3.03;;
57856;SDS011;43683;48.650;9.290;2023-04-25T03:52:57;4.03;;;2.90;;
57856;SDS011;43683;48.650;9.290;2023-04-25T03:55:23;3.47;;;2.85;;
57856;SDS011;43683;48.650;9.290;2023-04-25T03:57:48;5.15;;;3.20;;
57856;SDS011;43683;48.650;9.290;2023-04-25T04:00:14;3.45;;;2.75;;
57856;SDS011;43683;48.650;9.290;2023-04-25T04:02:40;4.57;;;3.10;;
57856;SDS011;43683;48.650;9.290;2023-04-25T04:05:05;6.20;;;3.00;;
57856;SDS011;43683;48.650;9.290;2023-04-25T04:07:31;3.65;;;3.03;;
57856;SDS011;43683;48.650;9.290;2023-04-25T04:09:58;6.15;;;2.92;;
57856;SDS011;43683;48.650;9.290;2023-04-25T04:12:23;4.45;;;2.72;;
57856;SDS011;43683;48.650;9.290;2023-04-25T04:14:49;8.32;;;2.95;;
57856;SDS011;43683;48.650;9.290;2023-04-25T04:17:14;5.47;;;3.35;;
57856;SDS011;43683;48.650;9.290;2023-04-25T04:19:40;4.13;;;2.90;;
57856;SDS011;43683;48.650;9.290;2023-04-25T04:22:06;4.78;;;3.10;;
57856;SDS011;43683;48.650;9.290;2023-04-25T04:24:32;8.20;;;3.15;;
57856;SDS011;43683;48.650;9.290;2023-04-25T04:26:57;5.47;;;3.25;;
57856;SDS011;43683;48.650;9.290;2023-04-25T04:29:23;4.75;;;3.40;;
57856;SDS011;43683;48.650;9.290;2023-04-25T04:31:49;6.00;;;3.20;;
57856;SDS011;43683;48.650;9.290;2023-04-25T04:34:18;4.93;;;3.22;;
57856;SDS011;43683;48.650;9.290;2023-04-25T04:36:44;4.75;;;3.00;;
57856;SDS011;43683;48.650;9.290;2023-04-25T04:39:11;4.82;;;2.95;;
57856;SDS011;43683;48.650;9.290;2023-04-25T04:41:37;5.38;;;2.75;;
57856;SDS011;43683;48.650;9.290;2023-04-25T04:44:03;5.25;;;2.83;;
57856;SDS011;43683;48.650;9.290;2023-04-25T04:46:28;4.72;;;2.97;;
57856;SDS011;43683;48.650;9.290;2023-04-25T04:48:56;4.45;;;2.83;;
57856;SDS011;43683;48.650;9.290;2023-04-25T04:51:21;5.72;;;3.30;;
57856;SDS011;43683;48.650;9.290;2023-04-25T04:53:47;8.60;;;3.10;;
57856;SDS011;43683;48.650;9.290;2023-04-25T04:56:12;4.47;;;3.05;;
57856;SDS011;43683;48.650;9.290;2023-04-25T04:58:38;5.57;;;3.13;;
57856;SDS011;43683;48.650;9.290;2023-04-25T05:01:03;5.28;;;2.75;;
57856;SDS011;43683;48.650;9.290;2023-04-25T05:03:29;5.05;;;2.83;;
57856;SDS011;43683;48.650;9.290;2023-04-25T05:05:54;6.00;;;2.80;;
57856;SDS011;43683;48.650;9.290;2023-04-25T05:08:20;5.35;;;3.00;;
57856;SDS011;43683;48.650;9.290;2023-04-25T05:10:45;5.03;;;2.58;;
57856;SDS011;43683;48.650;9.290;2023-04-25T05:13:11;6.38;;;3.08;;
57856;SDS011;43683;48.650;9.290;2023-04-25T05:15:36;5.45;;;2.67;;
57856;SDS011;43683;48.650;9.290;2023-04-25T05:18:02;5.40;;;3.13;;
57856;SDS011;43683;48.650;9.290;2023-04-25T05:20:27;4.30;;;2.70;;
57856;SDS011;43683;48.650;9.290;2023-04-25T05:22:53;3.65;;;2.20;;
57856;SDS011;43683;48.650;9.290;2023-04-25T05:25:18;6.43;;;2.53;;
57856;SDS011;43683;48.650;9.290;2023-04-25T05:27:44;4.10;;;2.38;;
57856;SDS011;43683;48.650;9.290;2023-04-25T05:30:10;6.35;;;2.63;;
57856;SDS011;43683;48.650;9.290;2023-04-25T05:32:35;4.00;;;2.38;;
57856;SDS011;43683;48.650;9.290;2023-04-25T05:35:01;4.28;;;2.53;;
57856;SDS011;43683;48.650;9.290;2023-04-25T05:37:27;4.55;;;2.65;;
57856;SDS011;43683;48.650;9.290;2023-04-25T05:39:55;5.05;;;2.90;;
57856;SDS011;43683;48.650;9.290;2023-04-25T05:42:20;5.15;;;2.55;;
57856;SDS011;43683;48.650;9.290;2023-04-25T05:44:46;3.20;;;2.47;;
57856;SDS011;43683;48.650;9.290;2023-04-25T05:47:11;4.55;;;2.60;;
57856;SDS011;43683;48.650;9.290;2023-04-25T05:49:37;6.93;;;2.70;;
57856;SDS011;43683;48.650;9.290;2023-04-25T05:52:02;5.80;;;2.58;;
57856;SDS011;43683;48.650;9.290;2023-04-25T05:54:28;3.70;;;2.28;;
57856;SDS011;43683;48.650;9.290;2023-04-25T05:56:53;4.30;;;2.75;;
57856;SDS011;43683;48.650;9.290;2023-04-25T05:59:21;4.90;;;3.08;;
57856;SDS011;43683;48.650;9.290;2023-04-25T06:01:46;4.50;;;2.70;;
57856;SDS011;43683;48.650;9.290;2023-04-25T06:04:12;3.08;;;2.50;;
57856;SDS011;43683;48.650;9.290;2023-04-25T06:06:37;5.88;;;2.53;;
57856;SDS011;43683;48.650;9.290;2023-04-25T06:09:03;4.40;;;2.45;;
57856;SDS011;43683;48.650;9.290;2023-04-25T06:11:28;4.72;;;2.63;;
57856;SDS011;43683;48.650;9.290;2023-04-25T06:13:54;3.33;;;2.40;;
57856;SDS011;43683;48.650;9.290;2023-04-25T06:16:20;4.57;;;2.50;;
57856;SDS011;43683;48.650;9.290;2023-04-25T06:18:45;3.40;;;2.50;;
57856;SDS011;43683;48.650;9.290;2023-04-25T06:21:11;6.45;;;2.63;;
57856;SDS011;43683;48.650;9.290;2023-04-25T06:23:36;5.57;;;2.60;;
57856;SDS011;43683;48.650;9.290;2023-04-25T06:26:02;4.82;;;2.58;;
57856;SDS011;43683;48.650;9.290;2023-04-25T06:28:28;4.22;;;2.40;;
57856;SDS011;43683;48.650;9.290;2023-04-25T06:30:53;3.17;;;2.65;;
57856;SDS011;43683;48.650;9.290;2023-04-25T06:33:19;3.58;;;2.53;;
57856;SDS011;43683;48.650;9.290;2023-04-25T06:35:46;3.35;;;2.63;;
57856;SDS011;43683;48.650;9.290;2023-04-25T06:38:11;5.32;;;2.88;;
57856;SDS011;43683;48.650;9.290;2023-04-25T06:40:37;6.05;;;2.97;;
57856;SDS011;43683;48.650;9.290;2023-04-25T06:43:03;5.95;;;3.00;;
57856;SDS011;43683;48.650;9.290;2023-04-25T06:45:28;3.35;;;2.25;;
57856;SDS011;43683;48.650;9.290;2023-04-25T06:47:54;5.13;;;2.53;;
57856;SDS011;43683;48.650;9.290;2023-04-25T06:50:19;6.03;;;3.28;;
57856;SDS011;43683;48.650;9.290;2023-04-25T06:52:45;4.60;;;2.83;;
57856;SDS011;43683;48.650;9.290;2023-04-25T06:55:13;5.32;;;2.85;;
57856;SDS011;43683;48.650;9.290;2023-04-25T06:57:39;4.32;;;2.88;;
57856;SDS011;43683;48.650;9.290;2023-04-25T07:00:04;4.53;;;2.70;;
57856;SDS011;43683;48.650;9.290;2023-04-25T07:02:33;5.70;;;2.83;;
57856;SDS011;43683;48.650;9.290;2023-04-25T07:04:58;5.63;;;2.80;;
57856;SDS011;43683;48.650;9.290;2023-04-25T07:07:25;5.20;;;2.85;;
57856;SDS011;43683;48.650;9.290;2023-04-25T07:09:50;4.10;;;2.67;;
57856;SDS011;43683;48.650;9.290;2023-04-25T07:12:16;5.28;;;2.80;;
57856;SDS011;43683;48.650;9.290;2023-04-25T07:14:41;4.38;;;3.00;;
57856;SDS011;43683;48.650;9.290;2023-04-25T07:17:07;5.90;;;2.70;;
57856;SDS011;43683;48.650;9.290;2023-04-25T07:19:33;4.85;;;3.17;;
57856;SDS011;43683;48.650;9.290;2023-04-25T07:21:58;5.57;;;3.60;;
57856;SDS011;43683;48.650;9.290;2023-04-25T07:24:24;4.72;;;3.20;;
57856;SDS011;43683;48.650;9.290;2023-04-25T07:26:50;5.57;;;3.38;;
57856;SDS011;43683;48.650;9.290;2023-04-25T07:29:15;5.40;;;3.22;;
57856;SDS011;43683;48.650;9.290;2023-04-25T07:31:41;5.35;;;2.47;;
57856;SDS011;43683;48.650;9.290;2023-04-25T07:34:07;6.28;;;3.17;;
57856;SDS011;43683;48.650;9.290;2023-04-25T07:36:32;4.35;;;2.80;;
57856;SDS011;43683;48.650;9.290;2023-04-25T07:38:58;3.78;;;2.67;;
57856;SDS011;43683;48.650;9.290;2023-04-25T07:41:23;6.05;;;3.15;;
57856;SDS011;43683;48.650;9.290;2023-04-25T07:43:49;7.53;;;3.40;;
57856;SDS011;43683;48.650;9.290;2023-04-25T07:46:14;5.47;;;2.85;;
57856;SDS011;43683;48.650;9.290;2023-04-25T07:48:40;3.60;;;2.70;;
57856;SDS011;43683;48.650;9.290;2023-04-25T07:51:05;5.97;;;2.72;;
57856;SDS011;43683;48.650;9.290;2023-04-25T07:53:32;5.22;;;3.15;;
57856;SDS011;43683;48.650;9.290;2023-04-25T07:55:59;5.65;;;2.72;;
57856;SDS011;43683;48.650;9.290;2023-04-25T07:58:25;4.55;;;2.78;;
57856;SDS011;43683;48.650;9.290;2023-04-25T08:00:50;4.00;;;2.60;;
57856;SDS011;43683;48.650;9.290;2023-04-25T08:03:16;4.50;;;2.80;;
57856;SDS011;43683;48.650;9.290;2023-04-25T08:05:41;4.03;;;2.40;;
57856;SDS011;43683;48.650;9.290;2023-04-25T08:08:07;5.00;;;2.92;;
57856;SDS011;43683;48.650;9.290;2023-04-25T08:10:33;6.28;;;3.00;;
57856;SDS011;43683;48.650;9.290;2023-04-25T08:12:59;4.75;;;3.08;;
57856;SDS011;43683;48.650;9.290;2023-04-25T08:15:24;5.18;;;2.53;;
57856;SDS011;43683;48.650;9.290;2023-04-25T08:17:51;3.85;;;2.38;;
57856;SDS011;43683;48.650;9.290;2023-04-25T08:20:17;5.05;;;3.03;;
57856;SDS011;43683;48.650;9.290;2023-04-25T08:22:42;5.38;;;3.03;;
57856;SDS011;43683;48.650;9.290;2023-04-25T08:25:10;5.68;;;3.10;;
57856;SDS011;43683;48.650;9.290;2023-04-25T08:30:02;7.05;;;3.55;;
57856;SDS011;43683;48.650;9.290;2023-04-25T08:32:28;7.03;;;3.72;;
57856;SDS011;43683;48.650;9.290;2023-04-25T08:34:54;5.63;;;3.35;;
57856;SDS011;43683;48.650;9.290;2023-04-25T08:37:20;6.70;;;3.50;;
57856;SDS011;43683;48.650;9.290;2023-04-25T08:39:46;7.80;;;3.83;;
57856;SDS011;43683;48.650;9.290;2023-04-25T08:42:13;5.83;;;3.63;;
57856;SDS011;43683;48.650;9.290;2023-04-25T08:44:40;6.68;;;3.45;;
57856;SDS011;43683;48.650;9.290;2023-04-25T08:47:06;7.50;;;3.55;;
57856;SDS011;43683;48.650;9.290;2023-04-25T08:49:32;6.78;;;3.80;;
57856;SDS011;43683;48.650;9.290;2023-04-25T08:52:02;5.80;;;3.33;;
57856;SDS011;43683;48.650;9.290;2023-04-25T08:54:30;6.55;;;3.78;;
57856;SDS011;43683;48.650;9.290;2023-04-25T08:56:57;6.32;;;3.60;;
57856;SDS011;43683;48.650;9.290;2023-04-25T08:59:29;6.35;;;3.42;;
57856;SDS011;43683;48.650;9.290;2023-04-25T09:01:55;5.88;;;3.67;;
57856;SDS011;43683;48.650;9.290;2023-04-25T09:04:22;8.07;;;3.38;;
57856;SDS011;43683;48.650;9.290;2023-04-25T09:06:47;6.90;;;4.03;;
57856;SDS011;43683;48.650;9.290;2023-04-25T09:09:13;6.07;;;4.00;;
57856;SDS011;43683;48.650;9.290;2023-04-25T09:11:39;7.35;;;3.88;;
57856;SDS011;43683;48.650;9.290;2023-04-25T09:19:28;8.52;;;3.72;;
57856;SDS011;43683;48.650;9.290;2023-04-25T09:22:00;7.30;;;4.03;;
57856;SDS011;43683;48.650;9.290;2023-04-25T09:24:31;7.68;;;3.83;;
57856;SDS011;43683;48.650;9.290;2023-04-25T09:27:04;9.95;;;3.97;;
57856;SDS011;43683;48.650;9.290;2023-04-25T09:29:35;7.07;;;4.10;;
57856;SDS011;43683;48.650;9.290;2023-04-25T09:32:16;7.25;;;3.30;;
57856;SDS011;43683;48.650;9.290;2023-04-25T09:34:47;6.03;;;3.58;;
57856;SDS011;43683;48.650;9.290;2023-04-25T09:37:21;7.35;;;3.65;;
57856;SDS011;43683;48.650;9.290;2023-04-25T09:39:49;7.13;;;3.55;;
57856;SDS011;43683;48.650;9.290;2023-04-25T09:42:16;7.82;;;3.95;;
57856;SDS011;43683;48.650;9.290;2023-04-25T09:44:43;6.68;;;4.10;;
57856;SDS011;43683;48.650;9.290;2023-04-25T09:47:11;5.88;;;3.70;;
57856;SDS011;43683;48.650;9.290;2023-04-25T09:49:41;6.32;;;3.70;;
57856;SDS011;43683;48.650;9.290;2023-04-25T09:52:07;6.15;;;3.70;;
57856;SDS011;43683;48.650;9.290;2023-04-25T09:54:34;7.05;;;3.88;;
57856;SDS011;43683;48.650;9.290;2023-04-25T09:57:08;5.45;;;3.20;;
57856;SDS011;43683;48.650;9.290;2023-04-25T10:00:04;6.05;;;3.45;;
57856;SDS011;43683;48.650;9.290;2023-04-25T10:02:35;5.72;;;3.42;;
57856;SDS011;43683;48.650;9.290;2023-04-25T10:05:05;4.97;;;3.10;;
57856;SDS011;43683;48.650;9.290;2023-04-25T10:07:32;6.53;;;3.72;;
57856;SDS011;43683;48.650;9.290;2023-04-25T10:10:03;6.85;;;3.80;;
57856;SDS011;43683;48.650;9.290;2023-04-25T10:12:29;5.72;;;3.40;;
57856;SDS011;43683;48.650;9.290;2023-04-25T10:14:58;5.90;;;3.40;;
57856;SDS011;43683;48.650;9.290;2023-04-25T10:17:25;6.07;;;3.38;;
57856;SDS011;43683;48.650;9.290;2023-04-25T10:19:54;5.38;;;3.38;;
57856;SDS011;43683;48.650;9.290;2023-04-25T10:22:34;5.78;;;3.10;;
57856;SDS011;43683;48.650;9.290;2023-04-25T10:25:03;5.68;;;2.95;;
57856;SDS011;43683;48.650;9.290;2023-04-25T10:27:29;3.85;;;2.63;;
57856;SDS011;43683;48.650;9.290;2023-04-25T10:30:05;3.97;;;2.53;;
57856;SDS011;43683;48.650;9.290;2023-04-25T10:32:36;3.72;;;2.60;;
57856;SDS011;43683;48.650;9.290;2023-04-25T10:35:14;2.95;;;2.05;;
57856;SDS011;43683;48.650;9.290;2023-04-25T10:40:29;2.30;;;1.70;;
57856;SDS011;43683;48.650;9.290;2023-04-25T10:45:55;2.90;;;1.63;;
57856;SDS011;43683;48.650;9.290;2023-04-25T10:48:25;1.38;;;1.33;;
57856;SDS011;43683;48.650;9.290;2023-04-25T10:51:10;1.85;;;1.55;;
57856;SDS011;43683;48.650;9.290;2023-04-25T10:53:36;1.50;;;1.40;;
57856;SDS011;43683;48.650;9.290;2023-04-25T10:56:36;2.40;;;1.70;;
57856;SDS011;43683;48.650;9.290;2023-04-25T10:59:13;1.40;;;1.30;;
57856;SDS011;43683;48.650;9.290;2023-04-25T11:01:40;1.38;;;1.27;;
57856;SDS011;43683;48.650;9.290;2023-04-25T11:04:30;1.23;;;1.13;;
57856;SDS011;43683;48.650;9.290;2023-04-25T11:09:39;2.40;;;1.63;;
57856;SDS011;43683;48.650;9.290;2023-04-25T11:12:07;1.55;;;1.45;;
57856;SDS011;43683;48.650;9.290;2023-04-25T11:14:33;1.23;;;1.23;;
57856;SDS011;43683;48.650;9.290;2023-04-25T11:16:59;1.52;;;1.30;;
57856;SDS011;43683;48.650;9.290;2023-04-25T11:19:26;1.40;;;1.30;;
57856;SDS011;43683;48.650;9.290;2023-04-25T11:21:56;1.00;;;1.00;;
57856;SDS011;43683;48.650;9.290;2023-04-25T11:24:26;1.15;;;1.10;;
57856;SDS011;43683;48.650;9.290;2023-04-25T11:26:52;1.40;;;1.30;;
57856;SDS011;43683;48.650;9.290;2023-04-25T11:29:18;2.25;;;2.05;;
57856;SDS011;43683;48.650;9.290;2023-04-25T11:31:46;1.02;;;1.00;;
57856;SDS011;43683;48.650;9.290;2023-04-25T11:34:16;1.15;;;1.15;;
57856;SDS011;43683;48.650;9.290;2023-04-25T11:36:43;1.00;;;1.00;;
57856;SDS011;43683;48.650;9.290;2023-04-25T11:39:10;1.00;;;1.00;;
57856;SDS011;43683;48.650;9.290;2023-04-25T11:41:37;1.10;;;1.00;;
57856;SDS011;43683;48.650;9.290;2023-04-25T11:44:03;1.20;;;1.20;;
57856;SDS011;43683;48.650;9.290;2023-04-25T11:46:28;1.00;;;1.00;;
57856;SDS011;43683;48.650;9.290;2023-04-25T11:48:54;1.88;;;1.10;;
57856;SDS011;43683;48.650;9.290;2023-04-25T11:51:21;2.13;;;1.60;;
57856;SDS011;43683;48.650;9.290;2023-04-25T11:53:46;2.13;;;1.60;;
57856;SDS011;43683;48.650;9.290;2023-04-25T11:56:12;2.50;;;1.65;;
57856;SDS011;43683;48.650;9.290;2023-04-25T12:01:37;3.97;;;2.50;;
57856;SDS011;43683;48.650;9.290;2023-04-25T12:04:20;3.40;;;1.80;;
57856;SDS011;43683;48.650;9.290;2023-04-25T12:06:48;3.03;;;2.08;;
57856;SDS011;43683;48.650;9.290;2023-04-25T12:09:19;3.08;;;1.90;;
57856;SDS011;43683;48.650;9.290;2023-04-25T12:11:53;2.05;;;1.67;;
57856;SDS011;43683;48.650;9.290;2023-04-25T12:14:29;2.85;;;2.22;;
57856;SDS011;43683;48.650;9.290;2023-04-25T12:16:58;2.90;;;2.03;;
57856;SDS011;43683;48.650;9.290;2023-04-25T12:19:25;2.92;;;2.00;;
57856;SDS011;43683;48.650;9.290;2023-04-25T12:21:56;3.35;;;2.25;;
57856;SDS011;43683;48.650;9.290;2023-04-25T12:24:22;3.90;;;2.05;;
57856;SDS011;43683;48.650;9.290;2023-04-25T12:29:22;3.15;;;2.00;;
57856;SDS011;43683;48.650;9.290;2023-04-25T12:31:50;2.80;;;2.10;;
57856;SDS011;43683;48.650;9.290;2023-04-25T12:34:16;3.47;;;2.20;;
57856;SDS011;43683;48.650;9.290;2023-04-25T12:36:45;4.18;;;2.25;;
57856;SDS011;43683;48.650;9.290;2023-04-25T12:39:17;3.88;;;2.10;;
57856;SDS011;43683;48.650;9.290;2023-04-25T12:41:44;4.00;;;2.40;;
57856;SDS011;43683;48.650;9.290;2023-04-25T12:44:11;4.23;;;2.37;;
57856;SDS011;43683;48.650;9.290;2023-04-25T12:46:37;3.63;;;2.42;;
57856;SDS011;43683;48.650;9.290;2023-04-25T12:49:03;3.58;;;2.45;;
57856;SDS011;43683;48.650;9.290;2023-04-25T12:51:29;4.28;;;2.60;;
57856;SDS011;43683;48.650;9.290;2023-04-25T12:53:55;5.05;;;2.92;;
57856;SDS011;43683;48.650;9.290;2023-04-25T12:56:21;5.43;;;2.78;;
57856;SDS011;43683;48.650;9.290;2023-04-25T12:58:46;4.53;;;2.90;;
57856;SDS011;43683;48.650;9.290;2023-04-25T13:01:13;5.75;;;3.63;;
57856;SDS011;43683;48.650;9.290;2023-04-25T13:03:39;6.22;;;3.28;;
57856;SDS011;43683;48.650;9.290;2023-04-25T13:06:05;3.92;;;2.75;;
57856;SDS011;43683;48.650;9.290;2023-04-25T13:08:31;4.63;;;2.90;;
57856;SDS011;43683;48.650;9.290;2023-04-25T13:10:57;4.65;;;2.95;;
57856;SDS011;43683;48.650;9.290;2023-04-25T13:13:23;5.32;;;2.92;;
57856;SDS011;43683;48.650;9.290;2023-04-25T13:15:48;5.93;;;3.35;;
57856;SDS011;43683;48.650;9.290;2023-04-25T13:18:14;3.88;;;2.88;;
57856;SDS011;43683;48.650;9.290;2023-04-25T13:20:40;4.72;;;3.00;;
57856;SDS011;43683;48.650;9.290;2023-04-25T13:23:05;5.32;;;3.00;;
57856;SDS011;43683;48.650;9.290;2023-04-25T13:25:31;5.20;;;2.90;;
57856;SDS011;43683;48.650;9.290;2023-04-25T13:27:57;6.78;;;3.30;;
57856;SDS011;43683;48.650;9.290;2023-04-25T13:30:22;5.43;;;3.10;;
57856;SDS011;43683;48.650;9.290;2023-04-25T13:32:48;6.10;;;3.85;;
57856;SDS011;43683;48.650;9.290;2023-04-25T13:35:16;5.47;;;3.20;;
57856;SDS011;43683;48.650;9.290;2023-04-25T13:37:42;5.40;;;2.67;;
57856;SDS011;43683;48.650;9.290;2023-04-25T13:40:09;5.53;;;2.97;;
57856;SDS011;43683;48.650;9.290;2023-04-25T13:42:39;4.18;;;2.70;;
57856;SDS011;43683;48.650;9.290;2023-04-25T13:45:05;4.10;;;2.75;;
57856;SDS011;43683;48.650;9.290;2023-04-25T13:47:32;5.25;;;3.28;;
57856;SDS011;43683;48.650;9.290;2023-04-25T13:49:58;5.93;;;3.30;;
57856;SDS011;43683;48.650;9.290;2023-04-25T13:52:24;5.07;;;3.17;;
57856;SDS011;43683;48.650;9.290;2023-04-25T13:54:53;5.72;;;3.08;;
57856;SDS011;43683;48.650;9.290;2023-04-25T13:57:19;5.78;;;3.03;;
57856;SDS011;43683;48.650;9.290;2023-04-25T13:59:44;5.95;;;2.92;;
57856;SDS011;43683;48.650;9.290;2023-04-25T14:02:11;5.50;;;3.30;;
57856;SDS011;43683;48.650;9.290;2023-04-25T14:04:37;4.78;;;2.63;;
57856;SDS011;43683;48.650;9.290;2023-04-25T14:07:03;6.38;;;3.17;;
57856;SDS011;43683;48.650;9.290;2023-04-25T14:09:29;5.20;;;3.28;;
57856;SDS011;43683;48.650;9.290;2023-04-25T14:11:55;4.57;;;2.63;;
57856;SDS011;43683;48.650;9.290;2023-04-25T14:14:21;4.60;;;2.95;;
57856;SDS011;43683;48.650;9.290;2023-04-25T14:16:47;5.40;;;3.13;;
57856;SDS011;43683;48.650;9.290;2023-04-25T14:19:16;6.78;;;3.15;;
57856;SDS011;43683;48.650;9.290;2023-04-25T14:21:42;5.40;;;3.03;;
57856;SDS011;43683;48.650;9.290;2023-04-25T14:24:09;5.25;;;3.10;;
57856;SDS011;43683;48.650;9.290;2023-04-25T14:26:38;4.85;;;2.22;;
57856;SDS011;43683;48.650;9.290;2023-04-25T14:29:05;5.38;;;2.75;;
57856;SDS011;43683;48.650;9.290;2023-04-25T14:31:33;4.88;;;3.25;;
57856;SDS011;43683;48.650;9.290;2023-04-25T14:33:59;6.05;;;3.22;;
57856;SDS011;43683;48.650;9.290;2023-04-25T14:36:25;4.25;;;2.55;;
57856;SDS011;43683;48.650;9.290;2023-04-25T14:41:18;6.63;;;3.55;;
57856;SDS011;43683;48.650;9.290;2023-04-25T14:43:44;6.82;;;4.00;;
57856;SDS011;43683;48.650;9.290;2023-04-25T14:46:10;6.47;;;3.85;;
57856;SDS011;43683;48.650;9.290;2023-04-25T14:48:35;7.38;;;3.70;;
57856;SDS011;43683;48.650;9.290;2023-04-25T14:51:01;6.97;;;4.20;;
57856;SDS011;43683;48.650;9.290;2023-04-25T14:53:27;6.22;;;3.58;;
57856;SDS011;43683;48.650;9.290;2023-04-25T14:55:52;6.72;;;3.95;;
57856;SDS011;43683;48.650;9.290;2023-04-25T14:58:18;8.85;;;4.28;;
57856;SDS011;43683;48.650;9.290;2023-04-25T15:00:44;8.68;;;4.95;;
57856;SDS011;43683;48.650;9.290;2023-04-25T15:03:10;7.90;;;4.15;;
57856;SDS011;43683;48.650;9.290;2023-04-25T15:05:37;7.32;;;4.22;;
57856;SDS011;43683;48.650;9.290;2023-04-25T15:08:03;8.82;;;4.65;;
57856;SDS011;43683;48.650;9.290;2023-04-25T15:10:29;5.88;;;3.45;;